Time,TemperatureF,DewpointF,PressureIn,WindDirection,WindDirectionDegrees,WindSpeedMPH,WindSpeedGustMPH,Humidity,HourlyPrecipIn,Conditions,Clouds,dailyrainin,SoftwareType,DateUTC
2013-01-05 00:00:00,27.4,17.5,30.32,NW,321,0.0,3.0,66,0.00,CLR,,0.00,WeatherDisplay:10.37,2013-01-05 05:00:00,
2013-01-05 00:15:00,27.3,18.1,30.32,NW,321,0.0,4.0,68,0.00,CLR,,0.00,WeatherDisplay:10.37,2013-01-05 05:15:00,
2013-01-05 00:30:00,27.0,18.2,30.32,NW,321,0.0,2.0,69,0.00,CLR,,0.00,WeatherDisplay:10.37,2013-01-05 05:30:00,
2013-01-05 00:45:00,26.4,17.9,30.32,NW,321,0.0,1.0,70,0.00,CLR,,0.00,WeatherDisplay:10.37,2013-01-05 05:45:00,
2013-01-05 01:00:00,26.0,17.9,30.32,NW,321,0.0,1.0,71,0.00,CLR,,0.00,WeatherDisplay:10.37,2013-01-05 06:00:00,
2013-01-05 01:15:00,25.7,17.9,30.32,NW,321,0.0,1.0,72,0.00,CLR,,0.00,WeatherDisplay:10.37,2013-01-05 06:15:00,
2013-01-05 01:30:00,25.4,17.6,30.32,NW,321,0.0,0.0,72,0.00,CLR,,0.00,WeatherDisplay:10.37,2013-01-05 06:30:00,
2013-01-05 01:45:00,25.1,17.7,30.32,NW,321,0.0,1.0,73,0.00,CLR,,0.00,WeatherDisplay:10.37,2013-01-05 06:45:00,
2013-01-05 02:00:00,25.1,18.0,30.33,NW,321,0.0,1.0,74,0.00,CLR,,0.00,WeatherDisplay:10.37,2013-01-05 07:00:00,
2013-01-05 02:15:00,24.9,18.1,30.34,NW,321,0.0,2.0,75,0.00,CLR,,0.00,WeatherDisplay:10.37,2013-01-05 07:15:00,
2013-01-05 02:30:00,24.9,18.1,30.33,NW,321,0.0,3.0,75,0.00,CLR,,0.00,WeatherDisplay:10.37,2013-01-05 07:30:00,
2013-01-05 02:45:00,24.7,17.9,30.34,WSW,247,2.0,3.0,75,0.00,CLR,,0.00,WeatherDisplay:10.37,2013-01-05 07:45:00,
2013-01-05 03:00:00,25.3,18.5,30.35,West,263,0.0,3.0,75,0.00,CLR,,0.00,WeatherDisplay:10.37,2013-01-05 08:00:00,
2013-01-05 03:15:00,25.1,18.3,30.34,West,263,0.0,1.0,75,0.00,CLR,,0.00,WeatherDisplay:10.37,2013-01-05 08:15:00,
2013-01-05 03:30:00,24.7,17.9,30.35,SW,214,0.0,3.0,75,0.00,CLR,,0.00,WeatherDisplay:10.37,2013-01-05 08:30:00,
2013-01-05 03:45:00,24.7,17.9,30.36,SSW,209,0.0,3.0,75,0.00,CLR,,0.00,WeatherDisplay:10.37,2013-01-05 08:45:00,
2013-01-05 04:00:00,24.5,17.4,30.35,SSW,209,0.0,1.0,74,0.00,CLR,,0.00,WeatherDisplay:10.37,2013-01-05 09:00:00,
2013-01-05 04:15:00,24.6,17.5,30.34,SSW,209,0.0,1.0,74,0.00,CLR,,0.00,WeatherDisplay:10.37,2013-01-05 09:15:00,
2013-01-05 04:30:00,24.3,17.5,30.33,SSW,209,0.0,1.0,75,0.00,CLR,,0.00,WeatherDisplay:10.37,2013-01-05 09:30:00,
2013-01-05 04:45:00,23.9,17.1,30.32,SSW,209,0.0,2.0,75,0.00,CLR,,0.00,WeatherDisplay:10.37,2013-01-05 09:45:00,
2013-01-05 05:00:00,23.5,17.3,30.33,SSW,209,0.0,2.0,77,0.00,CLR,,0.00,WeatherDisplay:10.37,2013-01-05 10:00:00,
2013-01-05 05:15:00,23.2,17.4,30.33,SSW,209,0.0,0.0,78,0.00,CLR,,0.00,WeatherDisplay:10.37,2013-01-05 10:15:00,
2013-01-05 05:30:00,22.7,16.9,30.33,SSW,209,0.0,0.0,78,0.00,CLR,,0.00,WeatherDisplay:10.37,2013-01-05 10:30:00,
2013-01-05 05:45:00,22.3,16.5,30.34,SSW,209,0.0,1.0,78,0.00,CLR,,0.00,WeatherDisplay:10.37,2013-01-05 10:45:00,
2013-01-05 06:00:00,22.0,16.5,30.35,SSW,209,0.0,0.0,79,0.00,CLR,,0.00,WeatherDisplay:10.37,2013-01-05 11:00:00,
2013-01-05 06:15:00,21.7,16.5,30.34,SSW,209,0.0,1.0,80,0.00,CLR,,0.00,WeatherDisplay:10.37,2013-01-05 11:15:00,
2013-01-05 06:30:00,21.5,16.3,30.35,SSW,209,0.0,1.0,80,0.00,CLR,,0.00,WeatherDisplay:10.37,2013-01-05 11:30:00,
2013-01-05 06:45:00,21.3,16.4,30.35,SSW,209,0.0,0.0,81,0.00,CLR,,0.00,WeatherDisplay:10.37,2013-01-05 11:45:00,
2013-01-05 07:00:00,21.1,16.2,30.35,SSW,209,0.0,0.0,81,0.00,CLR,,0.00,WeatherDisplay:10.37,2013-01-05 12:00:00,
2013-01-05 07:15:00,20.9,16.0,30.35,SSW,209,0.0,0.0,81,0.00,CLR,,0.00,WeatherDisplay:10.37,2013-01-05 12:15:00,
2013-01-05 07:30:00,20.7,15.8,30.35,SSW,209,0.0,0.0,81,0.00,CLR,,0.00,WeatherDisplay:10.37,2013-01-05 12:30:00,
2013-01-05 07:45:00,20.5,15.6,30.36,SSW,209,0.0,0.0,81,0.00,CLR,,0.00,WeatherDisplay:10.37,2013-01-05 12:45:00,
2013-01-05 08:00:00,20.6,16.0,30.37,SSW,209,0.0,1.0,82,0.00,CLR,,0.00,WeatherDisplay:10.37,2013-01-05 13:00:00,
2013-01-05 08:15:00,20.7,16.4,30.38,SSW,209,0.0,0.0,83,0.00,CLR,,0.00,WeatherDisplay:10.37,2013-01-05 13:15:00,
2013-01-05 08:30:00,21.5,17.4,30.38,SSW,209,0.0,0.0,84,0.00,CLR,,0.00,WeatherDisplay:10.37,2013-01-05 13:30:00,
2013-01-05 08:45:00,22.4,18.3,30.39,SSW,209,0.0,1.0,84,0.00,CLR,,0.00,WeatherDisplay:10.37,2013-01-05 13:45:00,
2013-01-05 09:00:00,23.9,19.8,30.39,SSW,209,0.0,1.0,84,0.00,CLR,,0.00,WeatherDisplay:10.37,2013-01-05 14:00:00,
2013-01-05 09:15:00,25.4,20.9,30.39,SSW,210,0.0,0.0,83,0.00,CLR,,0.00,WeatherDisplay:10.37,2013-01-05 14:15:00,
2013-01-05 09:30:00,27.2,21.3,30.40,SSW,210,0.0,3.0,78,0.00,CLR,,0.00,WeatherDisplay:10.37,2013-01-05 14:30:00,
2013-01-05 09:45:00,29.6,22.3,30.40,SSW,211,0.0,3.0,74,0.00,CLR,,0.00,WeatherDisplay:10.37,2013-01-05 14:45:00,
2013-01-05 10:00:00,31.7,22.4,30.40,SW,214,0.0,3.0,68,0.00,CLR,,0.00,WeatherDisplay:10.37,2013-01-05 15:00:00,
2013-01-05 10:15:00,33.8,22.9,30.41,SW,218,1.0,3.0,64,0.00,CLR,,0.00,WeatherDisplay:10.37,2013-01-05 15:15:00,
2013-01-05 10:30:00,35.5,23.7,30.41,West,279,0.0,5.0,62,0.00,CLR,,0.00,WeatherDisplay:10.37,2013-01-05 15:30:00,
2013-01-05 10:45:00,36.7,23.7,30.41,West,279,2.0,3.0,59,0.00,CLR,,0.00,WeatherDisplay:10.37,2013-01-05 15:45:00,
2013-01-05 11:00:00,37.8,23.1,30.41,WNW,294,2.0,4.0,55,0.00,CLR,,0.00,WeatherDisplay:10.37,2013-01-05 16:00:00,
2013-01-05 11:15:00,38.9,23.2,30.40,NW,312,0.0,4.0,53,0.00,CLR,,0.00,WeatherDisplay:10.37,2013-01-05 16:15:00,
2013-01-05 11:30:00,40.1,22.9,30.39,NNW,341,1.0,6.0,50,0.00,CLR,,0.00,WeatherDisplay:10.37,2013-01-05 16:30:00,
2013-01-05 11:45:00,40.8,22.6,30.38,NNW,328,0.0,5.0,48,0.00,CLR,,0.00,WeatherDisplay:10.37,2013-01-05 16:45:00,
2013-01-05 12:00:00,42.2,23.4,30.37,ENE,71,2.0,4.0,47,0.00,CLR,,0.00,WeatherDisplay:10.37,2013-01-05 17:00:00,
2013-01-05 12:15:00,42.7,23.4,30.36,NE,39,0.0,4.0,46,0.00,CLR,,0.00,WeatherDisplay:10.37,2013-01-05 17:15:00,
2013-01-05 12:30:00,43.4,23.4,30.35,NW,311,0.0,5.0,45,0.00,CLR,,0.00,WeatherDisplay:10.37,2013-01-05 17:30:00,
2013-01-05 12:45:00,43.9,23.4,30.34,NW,312,1.0,4.0,44,0.00,CLR,,0.00,WeatherDisplay:10.37,2013-01-05 17:45:00,
2013-01-05 13:00:00,45.1,23.9,30.33,NW,312,2.0,4.0,43,0.00,CLR,,0.00,WeatherDisplay:10.37,2013-01-05 18:00:00,
2013-01-05 13:15:00,46.0,24.7,30.32,NW,313,0.0,4.0,43,0.00,CLR,,0.00,WeatherDisplay:10.37,2013-01-05 18:15:00,
2013-01-05 13:30:00,46.3,23.3,30.31,NNW,340,0.0,3.0,40,0.00,CLR,,0.00,WeatherDisplay:10.37,2013-01-05 18:30:00,
2013-01-05 13:45:00,46.8,22.5,30.30,East,80,2.0,4.0,38,0.00,CLR,,0.00,WeatherDisplay:10.37,2013-01-05 18:45:00,
2013-01-05 14:00:00,46.9,22.0,30.30,NE,35,2.0,4.0,37,0.00,CLR,,0.00,WeatherDisplay:10.37,2013-01-05 19:00:00,
2013-01-05 14:15:00,47.5,23.1,30.30,NNW,344,0.0,2.0,38,0.00,CLR,,0.00,WeatherDisplay:10.37,2013-01-05 19:15:00,
2013-01-05 14:30:00,47.6,23.2,30.31,North,351,0.0,4.0,38,0.00,CLR,,0.00,WeatherDisplay:10.37,2013-01-05 19:30:00,
2013-01-05 14:45:00,47.9,22.2,30.30,SW,234,1.0,5.0,36,0.00,CLR,,0.00,WeatherDisplay:10.37,2013-01-05 19:45:00,
2013-01-05 15:00:00,47.6,21.3,30.31,ESE,113,0.0,3.0,35,0.00,CLR,,0.00,WeatherDisplay:10.37,2013-01-05 20:00:00,
2013-01-05 15:15:00,47.6,21.9,30.30,SSE,162,0.0,4.0,36,0.00,CLR,,0.00,WeatherDisplay:10.37,2013-01-05 20:15:00,
2013-01-05 15:30:00,47.7,23.3,30.31,SSE,162,1.0,5.0,38,0.00,CLR,,0.00,WeatherDisplay:10.37,2013-01-05 20:30:00,
2013-01-05 15:45:00,47.5,23.1,30.30,SSE,151,1.0,5.0,38,0.00,CLR,,0.00,WeatherDisplay:10.37,2013-01-05 20:45:00,
2013-01-05 16:00:00,47.2,22.9,30.30,SSE,149,0.0,4.0,38,0.00,CLR,,0.00,WeatherDisplay:10.37,2013-01-05 21:00:00,
2013-01-05 16:15:00,46.8,23.1,30.30,SSE,156,1.0,3.0,39,0.00,CLR,,0.00,WeatherDisplay:10.37,2013-01-05 21:15:00,
2013-01-05 16:30:00,46.2,22.0,30.30,SSE,164,0.0,3.0,38,0.00,CLR,,0.00,WeatherDisplay:10.37,2013-01-05 21:30:00,
2013-01-05 16:45:00,45.7,23.3,30.30,SSE,164,0.0,2.0,41,0.00,CLR,,0.00,WeatherDisplay:10.37,2013-01-05 21:45:00,
2013-01-05 17:00:00,44.9,24.3,30.29,SSE,164,0.0,0.0,44,0.00,CLR,,0.00,WeatherDisplay:10.37,2013-01-05 22:00:00,
2013-01-05 17:15:00,43.7,23.2,30.28,SSE,164,0.0,0.0,44,0.00,CLR,,0.00,WeatherDisplay:10.37,2013-01-05 22:15:00,
2013-01-05 17:30:00,42.9,23.0,30.29,SSE,164,0.0,0.0,45,0.00,CLR,,0.00,WeatherDisplay:10.37,2013-01-05 22:30:00,
2013-01-05 17:45:00,41.9,22.6,30.29,SSE,164,0.0,2.0,46,0.00,CLR,,0.00,WeatherDisplay:10.37,2013-01-05 22:45:00,
2013-01-05 18:00:00,41.4,23.2,30.30,SE,135,0.0,3.0,48,0.00,CLR,,0.00,WeatherDisplay:10.37,2013-01-05 23:00:00,
2013-01-05 18:15:00,41.2,23.0,30.30,SE,135,0.0,1.0,48,0.00,CLR,,0.00,WeatherDisplay:10.37,2013-01-05 23:15:00,
2013-01-05 18:30:00,40.9,23.2,30.31,SE,135,0.0,1.0,49,0.00,CLR,,0.00,WeatherDisplay:10.37,2013-01-05 23:30:00,
2013-01-05 18:45:00,40.6,23.9,30.31,SE,135,0.0,1.0,51,0.00,CLR,,0.00,WeatherDisplay:10.37,2013-01-05 23:45:00,
2013-01-05 19:00:00,40.1,23.4,30.30,SE,135,0.0,0.0,51,0.00,CLR,,0.00,WeatherDisplay:10.37,2013-01-06 00:00:00,
2013-01-05 19:15:00,39.8,23.6,30.30,SE,135,0.0,0.0,52,0.00,CLR,,0.00,WeatherDisplay:10.37,2013-01-06 00:15:00,
2013-01-05 19:30:00,39.7,26.5,30.29,SE,135,0.0,1.0,59,0.00,CLR,,0.00,WeatherDisplay:10.37,2013-01-06 00:30:00,
2013-01-05 19:45:00,39.1,24.7,30.30,SE,135,0.0,0.0,56,0.00,CLR,,0.00,WeatherDisplay:10.37,2013-01-06 00:45:00,
2013-01-05 20:00:00,39.3,25.7,30.30,SE,135,0.0,1.0,58,0.00,CLR,,0.00,WeatherDisplay:10.37,2013-01-06 01:00:00,
2013-01-05 20:15:00,39.2,25.6,30.30,SE,135,0.0,0.0,58,0.00,CLR,,0.00,WeatherDisplay:10.37,2013-01-06 01:15:00,
2013-01-05 20:30:00,39.1,26.4,30.29,SE,135,0.0,0.0,60,0.00,FEW,,0.00,WeatherDisplay:10.37,2013-01-06 01:30:00,
2013-01-05 20:45:00,39.1,27.2,30.29,SE,135,0.0,0.0,62,0.00,FEW,,0.00,WeatherDisplay:10.37,2013-01-06 01:45:00,
2013-01-05 21:00:00,39.0,27.5,30.29,SE,135,0.0,0.0,63,0.00,FEW,,0.00,WeatherDisplay:10.37,2013-01-06 02:00:00,
2013-01-05 21:15:00,39.1,27.5,30.30,SE,135,0.0,1.0,63,0.00,FEW,,0.00,WeatherDisplay:10.37,2013-01-06 02:15:00,
2013-01-05 21:30:00,39.1,26.8,30.28,SE,135,0.0,1.0,61,0.00,OVC,,0.00,WeatherDisplay:10.37,2013-01-06 02:30:00,
2013-01-05 21:45:00,39.2,26.9,30.29,SE,135,0.0,1.0,61,0.00,OVC,,0.00,WeatherDisplay:10.37,2013-01-06 02:45:00,
2013-01-05 22:00:00,39.6,26.0,30.29,SE,135,0.0,1.0,58,0.00,OVC,,0.00,WeatherDisplay:10.37,2013-01-06 03:00:00,
2013-01-05 22:15:00,39.9,25.9,30.29,SE,135,0.0,1.0,57,0.00,OVC,,0.00,WeatherDisplay:10.37,2013-01-06 03:15:00,
2013-01-05 22:30:00,40.3,26.3,30.30,SE,135,0.0,2.0,57,0.00,OVC,,0.00,WeatherDisplay:10.37,2013-01-06 03:30:00,
2013-01-05 22:45:00,40.5,26.9,30.29,South,187,0.0,3.0,58,0.00,OVC,,0.00,WeatherDisplay:10.37,2013-01-06 03:45:00,
2013-01-05 23:00:00,40.3,27.9,30.29,South,187,0.0,0.0,61,0.00,OVC,,0.00,WeatherDisplay:10.37,2013-01-06 04:00:00,
2013-01-05 23:15:00,40.0,28.8,30.28,South,187,0.0,0.0,64,0.00,OVC,,0.00,WeatherDisplay:10.37,2013-01-06 04:15:00,
2013-01-05 23:30:00,39.8,28.2,30.26,South,187,0.0,0.0,63,0.00,OVC,,0.00,WeatherDisplay:10.37,2013-01-06 04:30:00,
2013-01-05 23:45:00,39.5,29.4,30.24,South,187,0.0,0.0,67,0.00,OVC,,0.00,WeatherDisplay:10.37,2013-01-06 04:45:00,